Time;durP1;ratioP1;P1;durP2;ratioP2;P2;SDS_P1;SDS_P2;PMS_P1;PMS_P2;Temp;Humidity;BMP_temperature;BMP_pressure;BME280_temperature;BME280_humidity;BME280_pressure;Samples;Min_cycle;Max_cycle;Signal;HPM_P1;HPM_P2
2022/04/16 00:02:23;;;;;;;2.95;1.45;;;20.40;99.90;;;;;;5060313;28;20426;-81
2022/04/16 00:04:50;;;;;;;2.83;1.52;;;20.30;99.90;;;;;;5060664;28;20489;-79
2022/04/16 00:07:17;;;;;;;3.30;1.60;;;20.60;99.90;;;;;;5069622;28;20394;-80
2022/04/16 00:09:44;;;;;;;4.10;1.60;;;20.90;99.90;;;;;;5069523;28;20386;-80
2022/04/16 00:12:11;;;;;;;4.72;1.50;;;21.00;99.90;;;;;;5069470;28;20377;-81
2022/04/16 00:14:38;;;;;;;2.40;1.52;;;21.10;99.90;;;;;;5072431;28;20934;-81
2022/04/16 00:17:06;;;;;;;5.03;2.00;;;21.20;99.90;;;;;;5072994;28;20384;-80
2022/04/16 00:19:37;;;;;;;5.00;1.88;;;21.30;99.90;;;;;;5053143;28;20437;-81
2022/04/16 00:22:07;;;;;;;5.40;2.10;;;21.00;99.90;;;;;;5052988;28;20380;-84
2022/04/16 00:24:35;;;;;;;6.97;1.85;;;21.00;99.90;;;;;;5052981;28;20380;-81
2022/04/16 00:27:01;;;;;;;2.22;1.50;;;21.10;99.90;;;;;;5054191;28;20457;-80
2022/04/16 00:29:30;;;;;;;4.97;1.80;;;21.50;99.90;;;;;;5053006;28;20474;-81
2022/04/16 00:31:57;;;;;;;6.13;1.60;;;21.60;99.90;;;;;;5052989;28;20379;-80
2022/04/16 00:34:24;;;;;;;3.20;1.58;;;21.60;99.90;;;;;;5052876;28;20375;-81
2022/04/16 00:36:51;;;;;;;4.35;1.63;;;21.50;99.90;;;;;;5062779;28;20881;-81
2022/04/16 00:39:18;;;;;;;5.13;1.48;;;21.50;99.90;;;;;;5071054;28;20397;-79
2022/04/16 00:41:45;;;;;;;3.17;1.40;;;21.70;99.90;;;;;;5063833;28;20390;-80
2022/04/16 00:44:13;;;;;;;6.32;1.60;;;22.00;99.90;;;;;;5052666;28;20379;-80
2022/04/16 00:46:40;;;;;;;11.67;1.70;;;22.50;99.90;;;;;;5061954;28;20405;-81
2022/04/16 00:49:07;;;;;;;2.83;1.50;;;22.50;99.90;;;;;;5072783;28;20382;-80
2022/04/16 00:51:35;;;;;;;3.22;1.30;;;22.50;99.90;;;;;;5072252;28;20381;-81
2022/04/16 00:54:03;;;;;;;4.35;1.45;;;22.70;99.90;;;;;;5071900;28;20386;-81
2022/04/16 00:56:30;;;;;;;4.13;1.40;;;23.10;99.90;;;;;;5070379;28;20388;-81
2022/04/16 00:58:58;;;;;;;5.18;1.55;;;23.10;99.90;;;;;;5072603;28;20378;-80
2022/04/16 01:01:25;;;;;;;3.83;1.60;;;23.10;99.90;;;;;;5072140;28;20379;-81
2022/04/16 01:03:52;;;;;;;3.42;1.40;;;23.30;99.90;;;;;;5067230;28;20388;-81
2022/04/16 01:06:19;;;;;;;4.03;1.38;;;23.20;99.90;;;;;;5048441;28;20771;-81
2022/04/16 01:08:46;;;;;;;4.47;1.40;;;23.10;99.90;;;;;;5048658;28;20391;-80
2022/04/16 01:11:14;;;;;;;3.30;1.40;;;23.10;99.90;;;;;;5060973;28;20416;-81
2022/04/16 01:13:48;;;;;;;5.18;1.50;;;23.00;99.90;;;;;;5068453;28;20382;-81
2022/04/16 01:16:15;;;;;;;5.35;1.58;;;22.80;99.90;;;;;;5067950;28;20374;-80
2022/04/16 01:18:49;;;;;;;2.95;1.70;;;22.80;99.90;;;;;;5065236;28;20479;-80
2022/04/16 01:21:18;;;;;;;6.00;1.80;;;22.70;99.90;;;;;;5068421;28;20915;-80
2022/04/16 01:23:45;;;;;;;5.18;1.63;;;22.90;99.90;;;;;;5067571;28;20386;-79
2022/04/16 01:26:13;;;;;;;3.25;1.45;;;23.30;99.90;;;;;;5052808;28;20388;-80
2022/04/16 01:28:43;;;;;;;5.72;1.40;;;23.90;99.90;;;;;;5030131;28;20414;-78
2022/04/16 01:31:10;;;;;;;4.50;1.40;;;24.60;99.60;;;;;;5029973;28;20386;-79
2022/04/16 01:33:37;;;;;;;4.80;1.47;;;25.70;97.60;;;;;;5063246;28;20389;-81
2022/04/16 01:36:05;;;;;;;2.35;1.40;;;26.40;93.80;;;;;;5067845;28;20386;-81
2022/04/16 01:38:35;;;;;;;2.28;1.35;;;26.80;92.10;;;;;;5065548;28;21406;-82
2022/04/16 01:41:02;;;;;;;3.08;1.50;;;27.40;90.50;;;;;;5067786;28;20785;-80
2022/04/16 01:43:29;;;;;;;3.08;1.50;;;28.40;83.10;;;;;;5067812;28;20745;-79
2022/04/16 01:45:57;;;;;;;3.72;1.30;;;28.60;80.40;;;;;;5067643;28;20388;-80
2022/04/16 01:48:27;;;;;;;1.77;1.20;;;29.30;73.30;;;;;;5066234;28;20459;-81
2022/04/16 01:50:55;;;;;;;1.88;1.10;;;30.10;69.10;;;;;;5049922;28;20421;-80
2022/04/16 01:53:22;;;;;;;3.17;1.07;;;30.60;66.10;;;;;;5047922;28;20418;-80
2022/04/16 01:55:49;;;;;;;3.28;1.30;;;31.10;63.50;;;;;;5047820;28;20407;-81
2022/04/16 01:58:17;;;;;;;1.92;1.10;;;31.50;60.80;;;;;;5047712;28;20874;-81
2022/04/16 02:00:44;;;;;;;4.22;1.30;;;32.00;60.20;;;;;;5052644;28;20796;-80
2022/04/16 02:03:11;;;;;;;2.55;1.25;;;31.40;58.90;;;;;;5067723;28;20401;-81
2022/04/16 02:05:39;;;;;;;2.47;1.10;;;30.90;59.40;;;;;;5049672;28;20407;-81
2022/04/16 02:08:07;;;;;;;1.73;1.20;;;30.50;58.40;;;;;;5047492;28;20458;-80
2022/04/16 02:10:34;;;;;;;3.10;1.30;;;29.80;61.60;;;;;;5047510;28;20792;-80
2022/04/16 02:13:01;;;;;;;4.07;1.10;;;30.30;61.30;;;;;;5047468;28;20384;-80
2022/04/16 02:15:29;;;;;;;3.53;1.30;;;31.00;60.90;;;;;;5047510;28;20526;-80
2022/04/16 02:17:56;;;;;;;3.72;1.13;;;32.10;57.30;;;;;;5047167;28;20382;-82
2022/04/16 02:20:24;;;;;;;3.42;1.20;;;33.00;55.40;;;;;;5063912;28;20443;-79
2022/04/16 02:22:54;;;;;;;2.47;1.20;;;33.60;53.90;;;;;;5061323;28;20388;-80
2022/04/16 02:25:24;;;;;;;2.20;1.05;;;34.20;52.20;;;;;;5046979;28;20368;-83
2022/04/16 02:27:51;;;;;;;2.72;1.20;;;34.50;50.50;;;;;;5060362;28;20410;-83
2022/04/16 02:30:19;;;;;;;3.37;1.00;;;33.00;50.50;;;;;;5067163;28;20421;-86
2022/04/16 02:32:48;;;;;;;3.20;1.08;;;31.00;53.50;;;;;;5061810;28;20883;-86
2022/04/16 02:35:17;;;;;;;2.35;1.20;;;29.30;56.10;;;;;;5048961;28;20740;-85
2022/04/16 02:37:45;;;;;;;3.50;1.00;;;27.90;59.20;;;;;;5064241;28;20385;-86
2022/04/16 02:40:13;;;;;;;2.10;1.10;;;26.80;62.60;;;;;;5054554;28;20399;-83
2022/04/16 02:42:45;;;;;;;2.40;1.20;;;26.00;64.10;;;;;;5047010;28;20383;-86
2022/04/16 02:48:00;;;;;;;1.92;1.10;;;25.30;67.80;;;;;;5047611;28;20523;-87
2022/04/16 02:50:28;;;;;;;3.03;1.00;;;25.60;64.20;;;;;;5064109;28;20382;-84
2022/04/16 02:52:59;;;;;;;2.35;0.90;;;25.30;64.00;;;;;;5066770;28;20780;-85
2022/04/16 02:55:27;;;;;;;1.88;0.95;;;25.00;64.60;;;;;;5065501;28;20481;-82
2022/04/16 02:57:54;;;;;;;1.95;0.82;;;24.60;63.80;;;;;;5066537;28;20939;-84
2022/04/16 03:00:22;;;;;;;1.90;0.90;;;25.30;66.90;;;;;;5063525;28;20404;-82
2022/04/16 03:02:53;;;;;;;1.85;0.80;;;27.20;64.60;;;;;;5055547;28;20414;-82
2022/04/16 03:05:20;;;;;;;0.90;0.80;;;28.70;58.40;;;;;;5046442;28;20442;-81
2022/04/16 03:07:48;;;;;;;1.58;0.80;;;30.00;55.00;;;;;;5046486;28;20934;-82
2022/04/16 03:10:15;;;;;;;2.40;0.90;;;31.60;50.60;;;;;;5050788;28;20826;-82
2022/04/16 03:12:53;;;;;;;1.70;0.70;;;33.20;49.00;;;;;;5050858;28;20882;-83
2022/04/16 03:18:08;;;;;;;2.45;0.88;;;34.40;45.40;;;;;;5049321;28;20472;-83
2022/04/16 03:20:37;;;;;;;2.03;0.80;;;34.80;43.50;;;;;;5055209;28;20389;-83
2022/04/16 03:23:05;;;;;;;1.20;0.70;;;33.60;44.60;;;;;;5066700;28;20385;-83
2022/04/16 03:25:32;;;;;;;1.85;0.90;;;32.20;46.40;;;;;;5064759;28;20382;-84
2022/04/16 03:27:59;;;;;;;1.52;0.98;;;32.30;48.30;;;;;;5066535;28;20485;-83
2022/04/16 03:30:26;;;;;;;1.38;0.90;;;32.40;48.00;;;;;;5066156;28;20386;-84
2022/04/16 03:32:54;;;;;;;0.88;0.70;;;32.00;49.00;;;;;;5060137;28;20388;-83
2022/04/16 03:35:23;;;;;;;0.98;0.63;;;31.90;48.00;;;;;;5047200;28;20430;-83
2022/04/16 03:37:51;;;;;;;1.27;0.70;;;31.10;48.60;;;;;;5046769;28;20392;-83
2022/04/16 03:40:19;;;;;;;1.20;0.80;;;30.20;49.80;;;;;;5046143;28;20384;-83
2022/04/16 03:42:47;;;;;;;1.58;0.80;;;29.50;51.20;;;;;;5046268;28;20384;-84
2022/04/16 03:45:23;;;;;;;1.02;0.70;;;29.40;48.70;;;;;;5052124;28;20439;-82
2022/04/16 03:47:53;;;;;;;2.33;0.80;;;29.10;49.30;;;;;;5051173;28;21002;-83
2022/04/16 03:50:21;;;;;;;1.95;0.70;;;28.60;50.10;;;;;;5051273;28;20376;-83
2022/04/16 03:52:49;;;;;;;1.48;0.80;;;28.10;52.20;;;;;;5069566;28;20409;-83
2022/04/16 04:00:58;;;;;;;2.10;0.75;;;27.00;57.60;;;;;;5060384;28;20393;-83
2022/04/16 04:03:26;;;;;;;1.80;0.70;;;26.80;55.30;;;;;;5050604;28;20370;-83
2022/04/16 04:05:56;;;;;;;1.00;0.70;;;26.70;55.70;;;;;;5049622;28;20462;-83
2022/04/16 04:08:25;;;;;;;2.70;0.80;;;26.70;56.20;;;;;;5049611;28;20731;-83
2022/04/16 04:10:52;;;;;;;2.30;0.80;;;26.90;53.50;;;;;;5049646;28;20950;-83
2022/04/16 04:13:19;;;;;;;0.70;0.70;;;27.20;52.40;;;;;;5049516;28;20453;-83
2022/04/16 04:15:46;;;;;;;1.33;0.70;;;27.70;51.00;;;;;;5049182;28;20419;-81
2022/04/16 04:18:13;;;;;;;1.00;0.63;;;27.80;51.00;;;;;;5077204;28;20504;-82
2022/04/16 04:20:40;;;;;;;1.40;0.70;;;27.80;51.40;;;;;;5070411;28;20808;-83
2022/04/16 04:23:08;;;;;;;3.22;0.70;;;27.90;52.90;;;;;;5069350;28;20389;-82
2022/04/16 04:25:34;;;;;;;1.40;0.70;;;27.90;50.40;;;;;;5069314;28;20374;-83
2022/04/16 04:28:01;;;;;;;1.92;0.70;;;27.10;52.20;;;;;;5069240;28;20900;-83
2022/04/16 04:30:30;;;;;;;1.90;0.70;;;27.40;52.30;;;;;;5068849;28;20473;-82
2022/04/16 04:32:58;;;;;;;1.65;0.80;;;28.60;52.10;;;;;;5061436;28;20387;-82
2022/04/16 04:35:26;;;;;;;3.13;1.10;;;29.70;50.50;;;;;;5055499;28;20450;-85
2022/04/16 04:37:53;;;;;;;1.58;0.80;;;31.10;49.60;;;;;;5049217;28;20380;-85
2022/04/16 04:40:20;;;;;;;1.95;0.82;;;31.80;49.60;;;;;;5049123;28;20372;-84
2022/04/16 04:42:47;;;;;;;1.15;0.70;;;32.40;46.80;;;;;;5049080;28;20475;-85
2022/04/16 04:45:15;;;;;;;2.50;0.90;;;32.40;46.90;;;;;;5049127;28;20851;-83
2022/04/16 04:47:43;;;;;;;1.05;0.88;;;32.30;47.00;;;;;;5031421;28;20436;-83
2022/04/16 04:50:10;;;;;;;1.35;0.80;;;32.80;46.60;;;;;;5049039;28;20379;-85
2022/04/16 04:52:39;;;;;;;1.20;0.70;;;33.30;46.10;;;;;;5048752;28;20380;-85
2022/04/16 04:55:11;;;;;;;2.28;0.80;;;33.20;44.90;;;;;;5048862;28;20407;-83
2022/04/16 04:57:38;;;;;;;1.77;0.88;;;32.20;45.60;;;;;;5048840;28;20380;-84
2022/04/16 05:00:07;;;;;;;1.63;0.70;;;30.70;48.20;;;;;;5047725;28;20380;-83
2022/04/16 05:02:47;;;;;;;1.70;0.80;;;29.60;49.90;;;;;;5048646;28;20902;-83
2022/04/16 05:05:18;;;;;;;2.72;0.82;;;30.10;50.00;;;;;;5048900;28;20412;-86
2022/04/16 05:07:45;;;;;;;1.88;1.10;;;30.90;48.10;;;;;;5030860;28;20729;-84
2022/04/16 05:10:12;;;;;;;1.55;0.73;;;30.40;48.40;;;;;;5048684;28;20371;-84
2022/04/16 05:12:39;;;;;;;1.80;0.82;;;30.20;49.60;;;;;;5048628;28;20932;-84
2022/04/16 05:15:07;;;;;;;2.33;0.82;;;30.70;49.40;;;;;;5048255;28;20863;-85
2022/04/16 05:17:37;;;;;;;1.55;0.82;;;30.90;49.10;;;;;;5048259;28;20464;-83
2022/04/16 05:20:07;;;;;;;1.75;0.90;;;31.00;50.00;;;;;;5048373;28;20375;-84
2022/04/16 05:22:34;;;;;;;2.33;1.00;;;31.70;48.60;;;;;;5048443;28;20376;-83
2022/04/16 05:25:01;;;;;;;2.72;0.98;;;32.60;47.00;;;;;;5048465;28;20372;-85
2022/04/16 05:27:30;;;;;;;2.05;0.90;;;32.90;46.20;;;;;;5030303;28;20400;-85
2022/04/16 05:33:05;;;;;;;3.58;1.10;;;32.10;49.70;;;;;;4986571;28;20389;-85
2022/04/16 05:35:32;;;;;;;3.88;1.20;;;30.60;52.10;;;;;;4986674;28;20974;-86
2022/04/16 05:37:59;;;;;;;4.72;1.30;;;29.30;54.20;;;;;;4986485;28;20392;-85
2022/04/16 05:40:26;;;;;;;3.58;1.27;;;28.20;56.40;;;;;;4986307;28;20400;-82
2022/04/16 05:42:53;;;;;;;5.25;1.70;;;27.10;60.10;;;;;;4986516;28;20397;-85
2022/04/16 05:45:20;;;;;;;4.93;1.90;;;26.20;65.50;;;;;;4970220;28;20935;-84
2022/04/16 05:47:47;;;;;;;7.38;2.10;;;25.60;70.80;;;;;;4986335;28;20412;-82
2022/04/16 05:50:14;;;;;;;5.55;2.00;;;25.00;74.80;;;;;;4986155;28;20408;-82
2022/04/16 05:52:41;;;;;;;4.53;1.88;;;24.50;79.40;;;;;;4986469;28;20485;-84
2022/04/16 05:55:09;;;;;;;6.72;2.22;;;24.10;84.00;;;;;;4986169;28;20389;-84
2022/04/16 05:57:36;;;;;;;5.75;2.20;;;23.80;89.50;;;;;;4986307;28;20389;-84
2022/04/16 06:00:05;;;;;;;5.13;2.10;;;23.70;93.00;;;;;;4986049;28;20414;-85
2022/04/16 06:02:32;;;;;;;5.27;2.20;;;23.70;96.00;;;;;;4986021;28;20961;-85
2022/04/16 06:05:02;;;;;;;5.40;2.05;;;23.90;96.90;;;;;;5047118;28;20460;-84
2022/04/16 06:07:29;;;;;;;6.88;2.28;;;24.00;97.30;;;;;;5047567;28;20414;-83
2022/04/16 06:09:56;;;;;;;4.28;2.20;;;24.00;98.30;;;;;;5047339;28;20379;-86
2022/04/16 06:12:23;;;;;;;6.35;2.17;;;24.00;98.60;;;;;;5047195;28;20410;-86
2022/04/16 06:14:53;;;;;;;9.13;2.33;;;24.20;98.90;;;;;;5047386;28;20386;-85
2022/04/16 06:17:20;;;;;;;6.53;2.30;;;24.40;98.70;;;;;;5047164;28;20737;-84
2022/04/16 06:19:47;;;;;;;6.15;2.60;;;24.80;97.90;;;;;;5047445;28;20384;-81
2022/04/16 06:22:14;;;;;;;7.60;2.40;;;25.20;97.30;;;;;;5047124;28;20411;-84
2022/04/16 06:24:42;;;;;;;5.97;2.20;;;25.50;96.40;;;;;;5047142;28;20411;-82
2022/04/16 06:27:10;;;;;;;5.72;2.35;;;25.30;96.10;;;;;;5046973;28;20400;-81
2022/04/16 06:29:37;;;;;;;5.03;2.20;;;25.10;97.00;;;;;;5065655;28;20394;-79
2022/04/16 06:32:04;;;;;;;8.00;2.22;;;24.80;98.00;;;;;;5064592;28;20458;-80
2022/04/16 06:34:31;;;;;;;7.03;2.30;;;24.60;98.40;;;;;;5057008;28;20396;-82
2022/04/16 06:36:59;;;;;;;6.95;2.40;;;24.50;98.80;;;;;;5046909;28;20375;-82
2022/04/16 06:39:26;;;;;;;5.53;2.10;;;24.50;99.10;;;;;;5058562;28;20474;-82
2022/04/16 06:41:53;;;;;;;4.50;2.28;;;24.40;99.10;;;;;;5066635;28;20377;-83
2022/04/16 06:44:20;;;;;;;5.63;2.30;;;24.30;99.30;;;;;;5053633;28;20421;-81
2022/04/16 06:46:47;;;;;;;6.72;2.28;;;24.30;99.80;;;;;;5069757;28;20398;-82
2022/04/16 06:49:14;;;;;;;6.63;2.20;;;24.20;99.90;;;;;;5060353;28;20496;-80
2022/04/16 06:51:41;;;;;;;6.95;2.17;;;23.80;99.90;;;;;;5066325;28;20378;-80
2022/04/16 06:54:08;;;;;;;5.95;2.25;;;23.70;99.90;;;;;;5057714;28;20395;-80
2022/04/16 06:56:35;;;;;;;4.53;2.22;;;23.50;99.90;;;;;;5046612;28;20379;-80
2022/04/16 06:59:02;;;;;;;5.80;2.20;;;23.40;99.90;;;;;;5049570;28;20811;-80
2022/04/16 07:01:29;;;;;;;5.28;2.33;;;23.20;99.90;;;;;;5057234;28;20488;-81
2022/04/16 07:03:56;;;;;;;6.20;2.22;;;23.10;99.90;;;;;;5066448;28;20752;-80
2022/04/16 07:06:23;;;;;;;6.80;2.47;;;22.80;99.90;;;;;;5066302;28;20439;-78
2022/04/16 07:08:49;;;;;;;6.00;2.38;;;22.50;99.90;;;;;;5060265;28;20452;-80
2022/04/16 07:11:16;;;;;;;6.88;2.30;;;22.30;99.90;;;;;;5032160;28;20467;-79
2022/04/16 07:13:43;;;;;;;4.63;2.15;;;22.20;99.90;;;;;;5046568;28;20510;-79
2022/04/16 07:16:10;;;;;;;5.50;2.40;;;22.10;99.90;;;;;;5050611;28;20425;-79
2022/04/16 07:18:37;;;;;;;6.70;2.30;;;22.00;99.90;;;;;;5046783;28;20433;-79
2022/04/16 07:21:04;;;;;;;6.00;2.42;;;21.80;99.90;;;;;;5060056;28;21355;-78
2022/04/16 07:23:31;;;;;;;5.22;2.38;;;21.70;99.90;;;;;;5067916;28;20406;-79
2022/04/16 07:25:58;;;;;;;6.18;2.50;;;21.60;99.90;;;;;;5070724;28;20370;-79
2022/04/16 07:28:25;;;;;;;6.43;2.30;;;21.50;99.90;;;;;;5052195;28;20405;-79
2022/04/16 07:30:52;;;;;;;6.57;2.33;;;21.40;99.90;;;;;;5070405;28;20374;-79
2022/04/16 07:33:19;;;;;;;7.30;2.40;;;21.30;99.90;;;;;;5052355;28;20378;-77
2022/04/16 07:35:46;;;;;;;5.30;2.35;;;21.20;99.90;;;;;;5070378;28;20388;-79
2022/04/16 07:38:14;;;;;;;6.30;2.25;;;21.10;99.90;;;;;;5070237;28;20422;-79
2022/04/16 07:40:41;;;;;;;7.00;2.00;;;21.00;99.90;;;;;;5061763;28;20420;-79
2022/04/16 07:43:08;;;;;;;7.72;2.30;;;20.90;99.90;;;;;;5052094;28;20479;-83
2022/04/16 07:45:35;;;;;;;7.78;2.40;;;20.90;99.90;;;;;;5050508;28;20491;-84
2022/04/16 07:48:02;;;;;;;7.05;2.40;;;20.80;99.90;;;;;;5050635;28;20430;-84
2022/04/16 07:50:29;;;;;;;5.47;2.30;;;20.60;99.90;;;;;;5050894;28;20375;-85
2022/04/16 07:52:56;;;;;;;8.38;2.50;;;20.40;99.90;;;;;;5050625;28;20425;-85
2022/04/16 07:55:23;;;;;;;7.07;2.40;;;20.30;99.90;;;;;;5050634;28;20454;-84
2022/04/16 07:57:50;;;;;;;7.22;2.75;;;20.20;99.90;;;;;;5050438;28;20380;-84
2022/04/16 08:00:17;;;;;;;6.28;2.72;;;20.10;99.90;;;;;;5050249;28;20978;-83
2022/04/16 08:02:44;;;;;;;7.10;2.60;;;20.00;99.90;;;;;;5049993;28;20438;-85
2022/04/16 08:05:11;;;;;;;6.75;2.80;;;19.90;99.90;;;;;;5049667;28;20442;-83
2022/04/16 08:07:38;;;;;;;8.85;3.17;;;19.80;99.90;;;;;;5050033;28;20486;-84
2022/04/16 08:10:05;;;;;;;7.40;3.10;;;19.70;99.90;;;;;;5031988;28;20404;-84
2022/04/16 08:12:32;;;;;;;6.63;2.90;;;19.60;99.90;;;;;;5049890;28;20382;-83
2022/04/16 08:14:59;;;;;;;6.50;2.75;;;19.60;99.90;;;;;;5049727;28;20376;-83
2022/04/16 08:17:26;;;;;;;7.93;2.70;;;19.50;99.90;;;;;;5031354;28;20382;-83
2022/04/16 08:19:53;;;;;;;7.18;2.67;;;19.40;99.90;;;;;;5031649;28;20375;-84
2022/04/16 08:22:21;;;;;;;5.53;2.65;;;19.40;99.90;;;;;;5049692;28;20379;-84
2022/04/16 08:27:35;;;;;;;7.90;3.67;;;19.20;99.90;;;;;;5049596;28;20395;-84
2022/04/16 08:30:04;;;;;;;7.80;3.53;;;19.20;99.90;;;;;;5028694;28;20400;-84
2022/04/16 08:32:35;;;;;;;7.00;3.13;;;19.10;99.90;;;;;;5049378;28;20364;-84
2022/04/16 08:35:03;;;;;;;6.18;3.30;;;19.10;99.90;;;;;;5049470;28;20383;-85
2022/04/16 08:37:31;;;;;;;6.15;2.95;;;19.10;99.90;;;;;;5049268;28;20376;-84
2022/04/16 08:39:58;;;;;;;5.57;2.97;;;19.10;99.90;;;;;;5049413;28;20391;-84
2022/04/16 08:42:25;;;;;;;5.82;3.20;;;19.00;99.90;;;;;;5049112;28;20376;-84
2022/04/16 08:44:53;;;;;;;6.23;3.40;;;19.00;99.90;;;;;;5049052;28;20445;-83
2022/04/16 08:47:20;;;;;;;7.32;3.92;;;18.90;99.90;;;;;;5048981;28;20412;-85
2022/04/16 08:49:48;;;;;;;9.68;4.10;;;18.80;99.90;;;;;;5048973;28;20467;-85
2022/04/16 08:52:17;;;;;;;7.30;3.95;;;18.80;99.90;;;;;;5048826;28;20388;-85
2022/04/16 08:54:44;;;;;;;7.30;3.97;;;18.70;99.90;;;;;;5049038;28;20397;-85
2022/04/16 08:57:11;;;;;;;6.22;3.95;;;18.70;99.90;;;;;;5048760;28;20379;-86
2022/04/16 08:59:38;;;;;;;6.50;4.10;;;18.60;99.90;;;;;;5048900;28;20388;-84
2022/04/16 09:02:05;;;;;;;7.30;4.40;;;18.50;99.90;;;;;;5048890;28;20388;-85
2022/04/16 09:04:32;;;;;;;11.05;4.80;;;18.50;99.90;;;;;;5048414;28;20888;-87
2022/04/16 09:07:02;;;;;;;8.00;4.68;;;18.40;99.90;;;;;;5048513;28;20384;-85
2022/04/16 09:09:29;;;;;;;7.40;4.50;;;18.30;99.90;;;;;;5030542;28;20887;-87
2022/04/16 09:11:57;;;;;;;9.93;4.47;;;18.30;99.90;;;;;;5030559;28;20774;-84
2022/04/16 09:14:42;;;;;;;9.20;4.67;;;18.20;99.90;;;;;;5048587;28;20387;-85
2022/04/16 09:17:10;;;;;;;7.03;4.60;;;18.10;99.90;;;;;;5048364;28;20426;-85
2022/04/16 09:19:37;;;;;;;8.13;4.97;;;18.10;99.90;;;;;;5048476;28;21051;-85
2022/04/16 09:22:04;;;;;;;10.68;4.72;;;18.10;99.90;;;;;;5048330;28;20791;-85
2022/04/16 09:24:46;;;;;;;8.90;4.50;;;18.00;99.90;;;;;;5057207;28;21195;-79
2022/04/16 09:27:13;;;;;;;13.10;4.90;;;18.00;99.90;;;;;;5055531;28;20398;-81
2022/04/16 09:29:43;;;;;;;8.50;4.80;;;18.10;99.90;;;;;;5045348;28;20831;-80
2022/04/16 09:32:21;;;;;;;7.90;5.05;;;18.20;99.90;;;;;;5048351;28;20773;-80
2022/04/16 09:34:48;;;;;;;8.93;5.00;;;18.30;99.90;;;;;;5048527;28;20379;-80
2022/04/16 09:37:15;;;;;;;8.68;4.80;;;18.30;99.90;;;;;;5048269;28;20728;-80
2022/04/16 09:39:42;;;;;;;10.02;5.28;;;18.30;99.90;;;;;;5048348;28;20407;-80
2022/04/16 09:42:09;;;;;;;9.32;4.88;;;18.30;99.90;;;;;;5047941;28;20426;-80
2022/04/16 09:44:36;;;;;;;8.00;4.60;;;18.40;99.90;;;;;;5048350;28;20387;-81
2022/04/16 09:47:04;;;;;;;7.47;4.13;;;18.40;99.90;;;;;;5029446;28;20400;-80
2022/04/16 09:49:34;;;;;;;7.23;4.43;;;18.40;99.90;;;;;;5047932;28;20380;-80
2022/04/16 09:52:04;;;;;;;8.13;4.43;;;18.40;99.90;;;;;;5047683;28;20407;-81
2022/04/16 09:54:33;;;;;;;7.65;4.10;;;18.30;99.90;;;;;;5049084;28;20429;-81
2022/04/16 09:57:02;;;;;;;6.93;4.00;;;18.30;99.90;;;;;;5048145;28;20384;-83
2022/04/16 09:59:35;;;;;;;8.45;4.10;;;18.30;99.90;;;;;;5048329;28;20375;-80
2022/04/16 10:02:03;;;;;;;9.05;4.10;;;18.30;99.90;;;;;;5055591;28;20480;-82
2022/04/16 10:04:31;;;;;;;7.93;4.20;;;18.30;99.90;;;;;;5068621;28;20723;-84
2022/04/16 10:06:58;;;;;;;5.22;4.10;;;18.20;99.90;;;;;;5058803;28;20388;-85
2022/04/16 10:09:27;;;;;;;7.45;4.47;;;18.20;99.90;;;;;;5047798;28;20384;-81
2022/04/16 10:15:07;;;;;;;8.18;4.20;;;18.00;99.90;;;;;;5069954;28;20363;-84
2022/04/16 10:17:42;;;;;;;9.45;4.15;;;18.00;99.90;;;;;;5047462;28;20863;-83
2022/04/16 10:20:11;;;;;;;9.38;4.18;;;18.00;99.90;;;;;;5051974;28;20746;-81
2022/04/16 10:22:39;;;;;;;8.02;4.22;;;17.90;99.90;;;;;;5066586;28;20898;-80
2022/04/16 10:25:07;;;;;;;8.90;4.25;;;17.80;99.90;;;;;;5067098;28;20397;-82
2022/04/16 10:27:40;;;;;;;9.60;4.10;;;17.70;99.90;;;;;;5067481;28;20398;-82
2022/04/16 10:30:12;;;;;;;9.07;4.50;;;17.60;99.90;;;;;;5065769;28;20366;-81
2022/04/16 10:32:42;;;;;;;8.85;4.57;;;17.60;99.90;;;;;;5048871;28;20396;-83
2022/04/16 10:35:17;;;;;;;9.80;4.80;;;17.50;99.90;;;;;;5065887;28;20477;-81
2022/04/16 10:37:49;;;;;;;8.57;4.45;;;17.50;99.90;;;;;;5063898;28;20445;-83
2022/04/16 10:40:25;;;;;;;11.20;6.30;;;17.50;99.90;;;;;;5048269;28;20392;-82
2022/04/16 10:43:02;;;;;;;10.15;5.53;;;17.50;99.90;;;;;;5048075;28;20400;-82
2022/04/16 10:45:36;;;;;;;7.97;5.20;;;17.40;99.90;;;;;;5055949;28;20390;-82
2022/04/16 10:48:04;;;;;;;10.55;4.80;;;17.40;99.90;;;;;;5064717;28;20433;-82
2022/04/16 10:50:32;;;;;;;8.85;4.82;;;17.40;99.90;;;;;;5047273;28;21276;-80
2022/04/16 10:53:04;;;;;;;7.38;5.05;;;17.40;99.90;;;;;;5055087;28;20437;-82
2022/04/16 10:55:31;;;;;;;10.27;5.32;;;17.40;99.90;;;;;;5060709;28;20386;-80
2022/04/16 10:58:03;;;;;;;10.50;5.50;;;17.40;99.90;;;;;;5062115;28;20833;-82
2022/04/16 11:01:11;;;;;;;10.80;4.97;;;17.30;99.90;;;;;;5051979;28;20375;-82
2022/04/16 11:03:50;;;;;;;12.70;5.93;;;17.30;99.90;;;;;;5047829;28;20396;-81
2022/04/16 11:06:18;;;;;;;9.13;5.88;;;17.20;99.90;;;;;;5028634;28;20406;-83
2022/04/16 11:08:46;;;;;;;10.07;6.55;;;17.10;99.90;;;;;;5065032;28;20444;-83
2022/04/16 11:11:15;;;;;;;13.05;7.53;;;17.10;99.90;;;;;;5066540;28;20931;-82
2022/04/16 11:13:44;;;;;;;12.32;8.18;;;17.00;99.90;;;;;;5065232;28;20390;-84
2022/04/16 11:16:11;;;;;;;11.65;8.35;;;17.00;99.90;;;;;;5066389;28;20382;-83
2022/04/16 11:18:38;;;;;;;11.63;8.18;;;16.90;99.90;;;;;;5064613;28;20394;-82
2022/04/16 11:21:13;;;;;;;13.15;7.85;;;16.90;99.90;;;;;;5066614;28;20382;-82
2022/04/16 11:23:51;;;;;;;11.48;7.60;;;16.90;99.90;;;;;;5060936;28;20716;-86
2022/04/16 11:34:43;;;;;;;19.25;10.57;;;16.80;99.90;;;;;;5063587;28;20381;-82
2022/04/16 11:37:10;;;;;;;18.92;10.88;;;16.70;99.90;;;;;;5052698;28;20775;-82
2022/04/16 11:39:37;;;;;;;17.05;9.40;;;16.70;99.90;;;;;;5047470;28;20376;-83
2022/04/16 11:42:09;;;;;;;19.60;8.77;;;16.70;99.90;;;;;;5050907;28;20396;-83
2022/04/16 11:44:42;;;;;;;13.77;7.93;;;16.70;99.90;;;;;;5046398;28;20856;-81
2022/04/16 11:47:13;;;;;;;12.07;7.45;;;16.70;99.90;;;;;;5055047;28;20488;-81
2022/04/16 11:49:48;;;;;;;11.02;6.80;;;16.70;99.90;;;;;;5056532;28;20398;-84
2022/04/16 11:52:16;;;;;;;15.57;8.57;;;16.60;99.90;;;;;;5046245;28;20375;-81
2022/04/16 11:54:43;;;;;;;15.27;7.73;;;16.60;99.90;;;;;;5064298;28;20402;-80
2022/04/16 11:57:21;;;;;;;10.23;7.03;;;16.50;99.90;;;;;;5032174;28;20926;-82
2022/04/16 11:59:57;;;;;;;10.53;6.70;;;16.50;99.90;;;;;;5056832;28;20410;-82
2022/04/16 12:02:34;;;;;;;11.02;6.90;;;16.40;99.90;;;;;;5061882;28;20385;-83
2022/04/16 12:05:09;;;;;;;13.80;7.88;;;16.40;99.90;;;;;;5066056;28;20736;-82
2022/04/16 12:07:48;;;;;;;14.70;9.80;;;16.40;99.90;;;;;;5063811;28;20403;-85
2022/04/16 12:10:17;;;;;;;16.52;9.80;;;16.40;99.90;;;;;;5057329;28;20380;-82
2022/04/16 12:12:53;;;;;;;19.55;9.90;;;16.30;99.90;;;;;;5066577;28;20488;-82
2022/04/16 12:15:31;;;;;;;17.13;9.70;;;16.30;99.90;;;;;;5056158;28;20392;-80
2022/04/16 12:18:10;;;;;;;16.47;10.30;;;16.30;99.90;;;;;;5053116;28;20381;-82
2022/04/16 12:20:54;;;;;;;15.85;10.25;;;16.30;99.90;;;;;;5070471;28;20363;-78
2022/04/16 12:23:23;;;;;;;14.05;9.10;;;16.30;99.90;;;;;;5069510;28;20381;-81
2022/04/16 12:25:50;;;;;;;14.13;8.52;;;16.30;99.90;;;;;;5069829;28;20386;-80
2022/04/16 12:28:17;;;;;;;13.43;8.18;;;16.30;99.90;;;;;;5069508;28;20437;-82
2022/04/16 12:30:51;;;;;;;11.55;7.70;;;16.30;99.90;;;;;;5050657;28;20478;-81
2022/04/16 12:33:25;;;;;;;12.13;7.60;;;16.30;99.90;;;;;;5049940;28;20380;-81
2022/04/16 12:35:55;;;;;;;12.50;8.07;;;16.20;99.90;;;;;;5049472;28;20494;-82
2022/04/16 12:38:24;;;;;;;12.88;8.30;;;16.20;99.90;;;;;;5049427;28;20384;-82
2022/04/16 12:41:04;;;;;;;14.45;8.23;;;16.10;99.90;;;;;;5050505;28;20465;-85
2022/04/16 12:43:31;;;;;;;13.23;7.60;;;16.00;99.90;;;;;;5049392;28;20396;-81
2022/04/16 12:45:58;;;;;;;9.60;7.15;;;15.90;99.90;;;;;;5063352;28;20929;-82
2022/04/16 12:48:25;;;;;;;10.82;7.18;;;15.90;99.90;;;;;;5067487;28;20414;-82
2022/04/16 12:50:52;;;;;;;12.10;7.22;;;15.90;99.90;;;;;;5049188;28;20891;-85
2022/04/16 12:53:19;;;;;;;13.17;7.87;;;15.90;99.90;;;;;;5049145;28;20823;-82
2022/04/16 12:55:46;;;;;;;12.98;9.10;;;15.80;99.90;;;;;;5049191;28;20380;-82
2022/04/16 12:58:13;;;;;;;12.52;8.48;;;15.70;99.90;;;;;;5060099;28;20386;-84
2022/04/16 13:00:42;;;;;;;12.18;9.20;;;15.60;99.90;;;;;;5053256;28;20380;-83
2022/04/16 13:03:09;;;;;;;16.77;10.10;;;15.60;99.90;;;;;;5048936;28;20449;-81
2022/04/16 13:05:36;;;;;;;11.98;8.68;;;15.60;99.90;;;;;;5048735;28;20401;-82
2022/04/16 13:08:06;;;;;;;12.73;7.88;;;15.50;99.90;;;;;;5048743;28;20439;-81
2022/04/16 13:10:33;;;;;;;13.50;9.15;;;15.50;99.90;;;;;;5049377;28;20372;-83
2022/04/16 13:13:02;;;;;;;14.82;9.88;;;15.60;99.90;;;;;;5064260;28;20391;-82
2022/04/16 13:15:30;;;;;;;15.80;9.70;;;15.50;99.90;;;;;;5048862;28;20378;-81
2022/04/16 13:17:57;;;;;;;12.63;8.67;;;15.50;99.90;;;;;;5058281;28;20389;-81
2022/04/16 13:20:24;;;;;;;11.98;8.10;;;15.40;99.90;;;;;;5052691;28;20774;-82
2022/04/16 13:22:51;;;;;;;10.88;7.85;;;15.40;99.90;;;;;;5050271;28;20752;-82